Time;durP1;ratioP1;P1;durP2;ratioP2;P2;SDS_P1;SDS_P2;PMS_P1;PMS_P2;Temp;Humidity;BMP_temperature;BMP_pressure;BME280_temperature;BME280_humidity;BME280_pressure;Samples;Min_cycle;Max_cycle;Signal;HPM_P1;HPM_P2
2021/07/12 00:01:16;;;;;;;8.38;4.53;;;;;;;19.44;78.28;100217.50;1761612;81;21463;-74
2021/07/12 00:03:42;;;;;;;16.47;5.10;;;;;;;19.45;78.19;100219.67;1762317;81;21007;-73
2021/07/12 00:06:08;;;;;;;7.15;4.45;;;;;;;19.46;78.11;100218.65;1761860;81;20944;-73
2021/07/12 00:08:34;;;;;;;8.58;4.33;;;;;;;19.47;78.12;100221.62;1762245;81;21007;-73
2021/07/12 00:11:01;;;;;;;10.55;5.00;;;;;;;19.49;78.10;100223.08;1762028;81;21023;-73
2021/07/12 00:13:27;;;;;;;5.47;4.12;;;;;;;19.55;77.98;100213.35;1761812;81;20987;-73
2021/07/12 00:15:53;;;;;;;6.20;4.15;;;;;;;19.54;78.08;100215.74;1761921;81;21478;-74
2021/07/12 00:18:19;;;;;;;7.08;4.25;;;;;;;19.55;78.22;100215.52;1761614;81;20987;-73
2021/07/12 00:20:45;;;;;;;8.28;4.20;;;;;;;19.57;78.22;100219.34;1762049;81;20999;-73
2021/07/12 00:23:12;;;;;;;7.90;4.60;;;;;;;19.57;78.01;100219.34;1761657;81;21749;-73
2021/07/12 00:25:38;;;;;;;6.97;4.87;;;;;;;19.55;78.09;100229.45;1761533;81;20983;-73
2021/07/12 00:28:06;;;;;;;8.07;5.07;;;;;;;19.53;77.88;100232.86;1761866;81;20983;-74
2021/07/12 00:30:33;;;;;;;8.93;4.58;;;;;;;19.52;77.69;100227.20;1761795;81;21864;-73
2021/07/12 00:32:59;;;;;;;6.33;4.50;;;;;;;19.37;79.28;100220.73;1761947;81;21050;-73
2021/07/12 00:35:27;;;;;;;13.23;5.23;;;;;;;19.30;78.60;100218.58;1761644;81;21002;-73
2021/07/12 00:37:53;;;;;;;7.90;5.20;;;;;;;19.32;78.79;100228.59;1761970;81;20975;-73
2021/07/12 00:40:23;;;;;;;17.80;5.50;;;;;;;19.33;78.93;100227.05;1762076;81;20972;-73
2021/07/12 00:42:51;;;;;;;10.60;4.72;;;;;;;19.26;79.41;100227.56;1762210;81;20991;-73
2021/07/12 00:45:22;;;;;;;7.17;4.33;;;;;;;19.23;78.67;100229.33;1761739;81;20990;-73
2021/07/12 00:47:50;;;;;;;9.50;5.20;;;;;;;19.06;82.01;100234.30;1761791;81;21074;-73
2021/07/12 00:50:17;;;;;;;9.07;5.20;;;;;;;19.06;81.03;100245.55;1761570;81;20987;-73
2021/07/12 00:52:45;;;;;;;4.90;4.33;;;;;;;18.99;81.53;100250.07;1761279;81;21530;-73
2021/07/12 00:55:37;;;;;;;12.80;5.27;;;;;;;18.93;81.49;100248.55;1739957;82;21277;-73
2021/07/12 00:58:08;;;;;;;5.43;3.97;;;;;;;18.92;81.50;100246.06;1740149;82;21036;-74
2021/07/12 01:00:35;;;;;;;13.90;5.27;;;;;;;18.89;81.54;100249.98;1739150;82;21539;-73
2021/07/12 01:03:02;;;;;;;6.93;4.30;;;;;;;18.91;81.37;100251.13;1740007;82;20991;-73
2021/07/12 01:05:31;;;;;;;9.30;4.60;;;;;;;18.94;80.82;100247.51;1739891;82;21020;-73
2021/07/12 01:07:59;;;;;;;8.37;4.20;;;;;;;18.97;80.79;100250.81;1739954;82;21056;-73
2021/07/12 01:10:26;;;;;;;8.80;4.20;;;;;;;18.91;80.80;100239.06;1739812;82;21024;-73
2021/07/12 01:13:28;;;;;;;12.27;6.50;;;;;;;18.82;81.01;100234.42;1740004;82;21485;-73
2021/07/12 01:16:00;;;;;;;15.33;4.93;;;;;;;18.77;81.41;100230.70;1740092;82;20961;-72
2021/07/12 01:18:47;;;;;;;12.57;4.67;;;;;;;18.77;81.25;100234.20;1739949;82;21056;-73
2021/07/12 01:21:47;;;;;;;9.90;4.53;;;;;;;18.78;80.79;100231.00;1739586;82;21499;-73
2021/07/12 01:24:29;;;;;;;;;;;;;;;18.71;80.27;100225.09;1742668;82;20976;-72
2021/07/12 01:27:43;;;;;;;11.63;4.17;;;;;;;18.67;80.50;100214.98;1740457;82;20402;-73
2021/07/12 01:30:24;;;;;;;13.80;5.40;;;;;;;18.63;80.28;100217.25;1740395;82;21020;-72
2021/07/12 01:33:17;;;;;;;16.40;4.47;;;;;;;18.63;80.12;100219.11;1738950;82;21515;-73
2021/07/12 01:36:03;;;;;;;14.13;5.53;;;;;;;18.58;80.46;100217.04;1739545;82;21063;-73
2021/07/12 01:39:00;;;;;;;13.77;4.70;;;;;;;18.57;80.71;100215.92;1739778;82;21028;-72
2021/07/12 01:41:38;;;;;;;11.90;5.57;;;;;;;18.55;80.79;100213.95;1739908;82;21008;-72
2021/07/12 01:44:56;;;;;;;7.13;5.60;;;;;;;18.52;81.14;100217.05;1739332;82;21488;-73
2021/07/12 01:47:36;;;;;;;10.90;5.30;;;;;;;18.54;80.91;100216.33;1738844;82;21083;-73
2021/07/12 01:50:10;;;;;;;11.53;5.40;;;;;;;18.52;80.72;100215.70;1740005;82;21004;-72
2021/07/12 01:53:03;;;;;;;10.43;4.90;;;;;;;18.46;80.46;100222.19;1739885;82;21016;-73
2021/07/12 01:55:56;;;;;;;14.10;5.87;;;;;;;18.44;80.44;100210.87;1739394;82;21009;-73
2021/07/12 01:58:40;;;;;;;9.20;4.77;;;;;;;18.46;80.54;100210.64;1739949;82;21107;-72
2021/07/12 02:01:10;;;;;;;9.07;4.20;;;;;;;18.45;80.72;100206.33;1730584;82;21461;-72
2021/07/12 02:03:37;;;;;;;10.72;4.95;;;;;;;18.46;80.68;100208.78;1740528;82;21484;-73
2021/07/12 02:06:08;;;;;;;10.80;5.03;;;;;;;18.48;80.82;100211.27;1740336;82;20992;-73
2021/07/12 02:08:37;;;;;;;7.93;4.63;;;;;;;18.52;80.49;100215.70;1740046;82;21004;-73
2021/07/12 02:11:05;;;;;;;12.97;5.03;;;;;;;18.52;80.31;100215.19;1719477;82;21035;-72
2021/07/12 02:13:36;;;;;;;9.40;4.97;;;;;;;18.51;80.15;100219.42;1739945;82;22030;-73
2021/07/12 02:16:05;;;;;;;8.90;5.13;;;;;;;18.48;80.21;100220.13;1739552;82;21063;-73
2021/07/12 02:18:35;;;;;;;7.37;4.80;;;;;;;18.48;80.15;100209.41;1739782;82;21101;-73
2021/07/12 02:21:02;;;;;;;8.67;5.23;;;;;;;18.49;80.03;100207.55;1740126;82;20980;-73
2021/07/12 02:23:31;;;;;;;9.03;4.87;;;;;;;18.51;80.07;100209.52;1739696;82;21063;-73
2021/07/12 02:25:58;;;;;;;10.77;5.60;;;;;;;18.48;79.72;100210.75;1740092;82;20988;-74
2021/07/12 02:28:26;;;;;;;11.47;5.10;;;;;;;18.49;79.78;100212.39;1739936;82;21023;-74
2021/07/12 02:30:53;;;;;;;10.20;5.10;;;;;;;18.52;79.69;100211.69;1740354;82;20992;-74
2021/07/12 02:33:22;;;;;;;8.50;4.80;;;;;;;18.48;80.02;100201.38;1739995;82;20976;-73
2021/07/12 02:35:49;;;;;;;8.37;4.13;;;;;;;18.46;80.01;100196.73;1740327;82;21019;-73
2021/07/12 02:38:16;;;;;;;8.80;5.17;;;;;;;18.45;79.73;100203.13;1740019;82;20972;-73
2021/07/12 02:40:45;;;;;;;11.33;4.30;;;;;;;18.41;79.86;100197.88;1740116;82;20987;-73
2021/07/12 02:43:13;;;;;;;13.13;5.43;;;;;;;18.37;79.77;100200.64;1740280;82;20988;-73
2021/07/12 02:45:40;;;;;;;8.17;5.23;;;;;;;18.36;79.71;100201.67;1740040;82;21008;-73
2021/07/12 02:48:07;;;;;;;8.97;5.03;;;;;;;18.34;80.01;100204.25;1740000;82;21031;-73
2021/07/12 02:50:34;;;;;;;7.13;4.87;;;;;;;18.31;79.97;100197.95;1740057;82;21414;-73
2021/07/12 02:53:13;;;;;;;9.50;5.10;;;;;;;18.33;80.52;100200.75;1740303;82;21523;-73
2021/07/12 02:55:40;;;;;;;6.50;4.87;;;;;;;18.34;80.41;100206.41;1751372;82;21518;-74
2021/07/12 02:58:07;;;;;;;6.77;4.90;;;;;;;18.34;80.25;100205.06;1752089;82;21459;-73
2021/07/12 03:00:34;;;;;;;9.17;4.80;;;;;;;18.32;80.29;100207.11;1751673;82;21035;-73
2021/07/12 03:03:00;;;;;;;12.27;5.80;;;;;;;18.32;80.40;100216.48;1752118;82;20941;-73
2021/07/12 03:05:26;;;;;;;8.97;5.17;;;;;;;18.34;80.37;100221.14;1751783;82;20978;-74
2021/07/12 03:08:20;;;;;;;7.40;5.30;;;;;;;18.33;80.97;100224.86;1751899;82;21007;-73
2021/07/12 03:10:55;;;;;;;10.07;5.17;;;;;;;18.37;80.66;100228.77;1749078;82;20996;-73
2021/07/12 03:13:56;;;;;;;12.33;6.20;;;;;;;18.41;80.58;100228.69;1751295;82;21003;-73
2021/07/12 03:16:25;;;;;;;11.57;6.20;;;;;;;18.42;80.32;100228.17;1750753;82;20980;-73
2021/07/12 03:18:59;;;;;;;7.83;6.47;;;;;;;18.41;80.46;100231.38;1751642;82;21078;-73
2021/07/12 03:21:26;;;;;;;8.47;5.80;;;;;;;18.41;80.76;100230.03;1724410;82;20972;-73
2021/07/12 03:23:56;;;;;;;8.10;5.97;;;;;;;18.46;80.83;100224.04;1751735;82;20999;-73
2021/07/12 03:26:24;;;;;;;5.70;5.03;;;;;;;18.51;80.76;100220.77;1751790;82;21039;-73
2021/07/12 03:28:55;;;;;;;9.37;5.63;;;;;;;18.57;80.70;100223.96;1751855;82;20988;-73
2021/07/12 03:31:25;;;;;;;13.03;6.60;;;;;;;18.60;80.58;100218.19;1751711;82;21018;-73
2021/07/12 03:33:54;;;;;;;13.45;6.05;;;;;;;18.65;80.51;100221.09;1752426;82;21507;-73
2021/07/12 03:36:22;;;;;;;8.13;6.13;;;;;;;18.69;80.86;100224.99;1751758;82;21503;-73
2021/07/12 03:38:50;;;;;;;12.35;5.75;;;;;;;18.71;80.47;100221.59;1751934;82;21051;-73
2021/07/12 03:41:17;;;;;;;11.67;6.20;;;;;;;18.75;80.62;100228.22;1751957;82;20953;-74
2021/07/12 03:43:43;;;;;;;7.93;6.70;;;;;;;18.74;80.54;100227.92;1751769;82;20980;-74
2021/07/12 03:46:09;;;;;;;15.17;7.33;;;;;;;18.67;80.59;100222.53;1751916;82;20984;-73
2021/07/12 03:48:42;;;;;;;8.80;6.23;;;;;;;18.71;80.50;100222.42;1751310;82;21079;-73
2021/07/12 03:51:14;;;;;;;10.28;7.05;;;;;;;18.78;80.76;100229.14;1751583;82;21035;-74
2021/07/12 03:53:41;;;;;;;14.87;6.70;;;;;;;18.76;80.74;100228.55;1750728;81;21289;-73
2021/07/12 03:56:08;;;;;;;17.42;6.72;;;;;;;18.81;80.68;100223.37;1739722;81;21467;-74
2021/07/12 03:58:34;;;;;;;15.10;7.10;;;;;;;18.89;81.04;100227.19;1739684;82;21011;-73
2021/07/12 04:01:00;;;;;;;9.20;6.75;;;;;;;18.88;81.60;100218.84;1740183;82;20968;-74
2021/07/12 04:03:28;;;;;;;7.20;6.35;;;;;;;18.89;81.40;100217.80;1739933;82;21453;-73
2021/07/12 04:05:54;;;;;;;13.48;6.78;;;;;;;19.00;81.20;100219.56;1740108;82;20964;-74
2021/07/12 04:08:20;;;;;;;11.28;7.30;;;;;;;19.05;81.14;100214.41;1740099;82;21502;-74
2021/07/12 04:10:46;;;;;;;15.23;7.92;;;;;;;19.10;81.32;100210.56;1740385;82;20983;-74
2021/07/12 04:13:13;;;;;;;16.82;8.20;;;;;;;19.19;80.87;100220.06;1740360;82;21015;-73
2021/07/12 04:15:41;;;;;;;12.18;7.42;;;;;;;19.28;80.75;100222.00;1739881;82;21861;-74
2021/07/12 04:18:08;;;;;;;9.48;7.03;;;;;;;19.27;80.82;100215.79;1740093;82;21542;-73
2021/07/12 04:20:35;;;;;;;9.23;7.83;;;;;;;19.34;80.64;100220.64;1740188;82;21464;-73
2021/07/12 04:23:01;;;;;;;8.45;6.80;;;;;;;19.46;80.64;100222.67;1740274;82;20992;-73
2021/07/12 04:25:29;;;;;;;11.45;7.75;;;;;;;19.52;80.85;100223.99;1740132;82;21054;-73
2021/07/12 04:28:00;;;;;;;13.48;8.10;;;;;;;19.57;80.58;100219.34;1740265;82;21467;-74
2021/07/12 04:30:26;;;;;;;13.30;8.35;;;;;;;19.66;80.22;100220.78;1740050;82;21515;-74
2021/07/12 04:32:52;;;;;;;13.30;8.20;;;;;;;19.69;80.06;100209.62;1740294;82;21012;-74
2021/07/12 04:35:19;;;;;;;14.28;8.08;;;;;;;19.79;80.04;100208.66;1740123;82;20961;-74
2021/07/12 04:37:46;;;;;;;10.32;8.08;;;;;;;19.92;80.01;100212.31;1739669;82;20972;-74
2021/07/12 04:40:13;;;;;;;13.80;8.13;;;;;;;19.92;79.96;100212.31;1740029;82;21000;-74
2021/07/12 04:42:39;;;;;;;12.85;8.48;;;;;;;20.05;79.70;100215.77;1739857;82;21515;-74
2021/07/12 04:45:07;;;;;;;9.90;7.92;;;;;;;20.17;79.56;100202.47;1740177;82;21447;-74
2021/07/12 04:47:33;;;;;;;12.40;7.53;;;;;;;20.28;79.67;100199.09;1739921;82;21011;-74
2021/07/12 04:50:01;;;;;;;12.23;7.75;;;;;;;20.33;78.92;100200.30;1739994;82;21035;-74
2021/07/12 04:52:27;;;;;;;10.80;7.75;;;;;;;20.40;79.09;100195.68;1740081;82;21004;-74
2021/07/12 04:54:53;;;;;;;14.28;8.55;;;;;;;20.40;78.66;100193.84;1740354;82;20969;-74
2021/07/12 04:57:19;;;;;;;14.05;8.88;;;;;;;20.45;78.71;100192.64;1740204;82;21012;-74
2021/07/12 04:59:48;;;;;;;12.98;8.53;;;;;;;20.55;78.87;100191.39;1740210;82;20980;-74
2021/07/12 05:02:14;;;;;;;13.38;8.58;;;;;;;20.66;78.78;100187.47;1740193;82;20984;-74
2021/07/12 05:04:41;;;;;;;12.68;9.93;;;;;;;20.78;78.66;100184.88;1740165;82;21444;-75
2021/07/12 05:07:10;;;;;;;17.90;7.67;;;;;;;20.91;78.60;100184.74;1740120;82;21024;-74
2021/07/12 05:09:35;;;;;;;22.40;8.78;;;;;;;21.00;77.90;100186.63;1739769;82;21024;-74
2021/07/12 05:12:02;;;;;;;14.33;7.50;;;;;;;21.10;77.05;100179.41;1740324;82;20996;-75
2021/07/12 05:14:29;;;;;;;16.45;8.98;;;;;;;21.16;76.90;100187.41;1740162;82;20985;-74
2021/07/12 05:16:55;;;;;;;22.90;8.58;;;;;;;21.16;76.32;100190.09;1719167;82;21044;-74
2021/07/12 05:19:22;;;;;;;13.13;8.43;;;;;;;21.20;76.43;100193.16;1740254;82;21558;-74
2021/07/12 05:21:48;;;;;;;10.93;7.10;;;;;;;21.32;76.45;100193.23;1740371;82;21698;-75
2021/07/12 05:24:15;;;;;;;16.65;7.90;;;;;;;21.35;75.67;100190.13;1740412;82;21000;-74
2021/07/12 05:26:41;;;;;;;10.75;7.00;;;;;;;21.44;75.66;100182.07;1739676;82;21024;-73
2021/07/12 05:29:07;;;;;;;13.83;8.33;;;;;;;21.58;75.38;100186.78;1740431;82;21037;-74
2021/07/12 05:31:34;;;;;;;12.90;8.68;;;;;;;21.58;75.38;100186.78;1740314;82;20984;-74
2021/07/12 05:34:00;;;;;;;16.73;9.90;;;;;;;21.66;75.67;100168.95;1740353;82;21008;-75
2021/07/12 05:36:26;;;;;;;10.60;8.20;;;;;;;21.83;75.32;100174.53;1740346;82;21004;-75
2021/07/12 05:38:52;;;;;;;9.25;8.25;;;;;;;21.95;74.99;100174.58;1740524;82;21000;-75
2021/07/12 05:41:18;;;;;;;12.15;7.20;;;;;;;22.06;74.76;100180.53;1740372;82;20956;-75
2021/07/12 05:43:45;;;;;;;10.55;8.00;;;;;;;22.19;74.55;100184.96;1740244;82;21079;-75
2021/07/12 05:46:11;;;;;;;10.55;7.35;;;;;;;22.30;73.82;100179.60;1740407;82;20944;-75
2021/07/12 05:48:37;;;;;;;13.15;7.42;;;;;;;22.35;73.05;100178.89;1739691;82;21024;-75
2021/07/12 05:51:03;;;;;;;10.98;8.60;;;;;;;22.41;72.55;100177.14;1740205;82;21459;-75
2021/07/12 05:53:30;;;;;;;11.85;8.13;;;;;;;22.51;72.62;100179.58;1739790;82;21004;-76
2021/07/12 05:55:56;;;;;;;11.45;8.45;;;;;;;22.67;72.75;100185.33;1740160;82;20984;-76
2021/07/12 05:58:22;;;;;;;12.40;7.87;;;;;;;22.80;72.36;100193.74;1740003;81;21067;-75
2021/07/12 06:00:48;;;;;;;12.25;8.95;;;;;;;22.92;71.87;100199.96;1739954;81;21787;-75
2021/07/12 06:03:14;;;;;;;10.00;8.53;;;;;;;23.02;71.46;100202.09;1740160;82;20969;-75
2021/07/12 06:05:41;;;;;;;14.38;8.20;;;;;;;23.15;70.96;100207.27;1740060;82;20938;-75
2021/07/12 06:08:07;;;;;;;9.48;7.37;;;;;;;23.22;70.52;100212.03;1740458;82;21007;-75
2021/07/12 06:10:33;;;;;;;22.75;8.88;;;;;;;23.33;70.38;100205.80;1740273;82;20984;-75
2021/07/12 06:13:01;;;;;;;9.88;7.75;;;;;;;23.45;70.50;100198.17;1740386;82;20988;-76
2021/07/12 06:15:29;;;;;;;10.93;7.95;;;;;;;23.54;70.32;100200.83;1739944;82;20985;-75
2021/07/12 06:17:55;;;;;;;10.05;7.85;;;;;;;23.62;69.20;100199.08;1740056;82;21507;-75
2021/07/12 06:20:21;;;;;;;12.45;9.00;;;;;;;23.67;68.90;100196.48;1740185;82;21519;-76
2021/07/12 06:22:49;;;;;;;12.85;7.42;;;;;;;23.75;69.08;100190.73;1739901;82;21357;-75
2021/07/12 06:25:18;;;;;;;14.33;8.13;;;;;;;23.83;68.79;100192.25;1740196;82;21514;-75
2021/07/12 06:27:45;;;;;;;10.73;7.20;;;;;;;23.92;68.51;100199.44;1739895;82;21008;-73
2021/07/12 06:30:13;;;;;;;13.00;7.12;;;;;;;24.00;68.29;100201.77;1740078;82;21385;-73
2021/07/12 06:32:40;;;;;;;8.88;7.95;;;;;;;24.07;67.88;100198.36;1739574;82;20968;-73
2021/07/12 06:35:09;;;;;;;11.48;7.37;;;;;;;24.13;67.35;100194.69;1740098;82;20980;-73
2021/07/12 06:37:37;;;;;;;11.05;7.55;;;;;;;24.16;67.03;100199.61;1739908;82;20988;-73
2021/07/12 06:40:05;;;;;;;9.73;7.40;;;;;;;24.20;66.86;100191.86;1740072;82;21511;-73
2021/07/12 06:42:31;;;;;;;8.50;7.67;;;;;;;24.30;66.87;100198.24;1739986;82;21024;-72
2021/07/12 06:44:58;;;;;;;10.30;8.03;;;;;;;24.43;66.71;100196.34;1740352;82;20973;-73
2021/07/12 06:47:25;;;;;;;12.90;7.22;;;;;;;24.49;66.30;100195.36;1740401;82;20980;-73
2021/07/12 06:49:52;;;;;;;10.03;8.15;;;;;;;24.47;66.24;100199.64;1739994;82;21055;-73
2021/07/12 06:52:19;;;;;;;11.03;7.65;;;;;;;24.60;66.28;100203.09;1740115;82;21500;-73
2021/07/12 06:54:45;;;;;;;9.85;7.60;;;;;;;24.71;66.10;100203.55;1739877;82;20985;-73
2021/07/12 06:57:14;;;;;;;12.40;7.42;;;;;;;24.85;65.64;100204.03;1748725;81;21019;-73
2021/07/12 06:59:40;;;;;;;11.18;8.13;;;;;;;24.94;64.70;100208.77;1761129;81;20968;-74
2021/07/12 07:02:07;;;;;;;16.73;7.67;;;;;;;25.10;65.71;100205.77;1762213;81;20947;-74
2021/07/12 07:04:33;;;;;;;12.13;7.72;;;;;;;25.23;64.96;100202.45;1762029;81;20987;-74
2021/07/12 07:06:59;;;;;;;10.93;8.35;;;;;;;25.35;65.11;100201.28;1762261;81;20964;-74
2021/07/12 07:09:31;;;;;;;10.82;7.65;;;;;;;25.51;64.91;100204.99;1761878;81;21019;-73
2021/07/12 07:11:57;;;;;;;13.20;7.67;;;;;;;25.65;64.45;100211.67;1761665;81;21026;-73
2021/07/12 07:14:23;;;;;;;9.70;8.55;;;;;;;25.76;63.71;100212.62;1761827;81;20979;-73
2021/07/12 07:16:49;;;;;;;14.65;8.08;;;;;;;25.89;63.58;100207.36;1761723;81;21494;-73
2021/07/12 07:19:16;;;;;;;11.40;7.67;;;;;;;26.00;63.19;100205.59;1761972;81;21015;-73
2021/07/12 07:21:43;;;;;;;9.83;7.55;;;;;;;26.04;63.16;100208.91;1761972;81;20987;-73
2021/07/12 07:24:12;;;;;;;10.28;8.05;;;;;;;26.16;62.77;100211.46;1762094;81;21486;-73
2021/07/12 07:26:39;;;;;;;11.12;7.00;;;;;;;26.19;62.23;100206.06;1761749;81;20998;-73
2021/07/12 07:29:05;;;;;;;21.10;7.53;;;;;;;26.31;62.72;100210.79;1761937;81;21439;-73
2021/07/12 07:31:31;;;;;;;11.48;8.05;;;;;;;26.40;62.51;100213.85;1761978;81;20979;-73
2021/07/12 07:33:57;;;;;;;10.75;7.40;;;;;;;26.50;61.92;100214.80;1761630;81;21023;-72
2021/07/12 07:36:23;;;;;;;11.68;7.58;;;;;;;26.62;61.41;100219.23;1762161;81;21023;-73
2021/07/12 07:38:50;;;;;;;13.53;7.62;;;;;;;26.71;61.17;100210.89;1761614;81;20967;-72
2021/07/12 07:41:18;;;;;;;9.98;7.33;;;;;;;26.83;61.22;100212.88;1762313;81;20979;-72
2021/07/12 07:43:44;;;;;;;10.85;8.85;;;;;;;26.89;61.02;100207.76;1761710;81;21476;-72
2021/07/12 07:46:10;;;;;;;9.88;7.53;;;;;;;26.92;60.37;100211.85;1762288;81;20975;-72
2021/07/12 07:48:38;;;;;;;10.85;7.20;;;;;;;27.02;60.25;100216.00;1761832;81;21022;-72
2021/07/12 07:51:04;;;;;;;10.18;7.33;;;;;;;27.09;59.39;100223.37;1761676;81;21557;-73
2021/07/12 07:53:30;;;;;;;9.83;6.70;;;;;;;27.12;58.89;100222.03;1761890;81;20986;-73
2021/07/12 07:55:56;;;;;;;15.93;7.37;;;;;;;27.19;59.38;100218.59;1761874;81;21038;-73
2021/07/12 07:58:22;;;;;;;13.25;6.58;;;;;;;27.08;58.58;100223.65;1761755;81;21498;-72
2021/07/12 08:00:49;;;;;;;8.80;6.87;;;;;;;27.13;58.84;100223.66;1761580;81;20943;-72
2021/07/12 08:03:15;;;;;;;8.78;7.12;;;;;;;27.08;58.01;100224.46;1761863;81;20998;-72
2021/07/12 08:05:41;;;;;;;22.32;7.45;;;;;;;27.23;58.66;100225.12;1761762;81;21007;-72
2021/07/12 08:08:08;;;;;;;7.70;6.50;;;;;;;27.36;58.55;100227.37;1762059;81;20979;-72
2021/07/12 08:10:34;;;;;;;12.47;7.10;;;;;;;27.48;57.91;100226.32;1761732;81;21514;-72
2021/07/12 08:13:00;;;;;;;9.00;7.25;;;;;;;27.55;57.38;100224.20;1761856;81;20980;-72
2021/07/12 08:15:27;;;;;;;10.68;7.03;;;;;;;27.72;57.53;100222.09;1762015;81;21014;-73
2021/07/12 08:17:53;;;;;;;9.23;7.92;;;;;;;27.80;57.51;100218.08;1761816;81;21407;-72
2021/07/12 08:20:20;;;;;;;9.70;7.22;;;;;;;27.97;57.66;100212.42;1762099;81;21023;-73
2021/07/12 08:22:53;;;;;;;10.72;8.68;;;;;;;28.10;57.02;100222.22;1761930;81;21494;-73
2021/07/12 08:25:17;;;;;;;9.38;7.25;;;;;;;28.13;55.94;100213.52;1760674;81;21015;-73
2021/07/12 08:27:43;;;;;;;9.23;6.97;;;;;;;28.19;55.70;100219.80;1761475;81;21022;-73
2021/07/12 08:30:11;;;;;;;10.75;6.58;;;;;;;28.11;55.62;100218.98;1761799;81;20988;-73
2021/07/12 08:32:38;;;;;;;8.05;7.08;;;;;;;27.89;55.16;100218.64;1761632;81;21000;-73
2021/07/12 08:35:06;;;;;;;9.85;7.55;;;;;;;27.99;55.90;100216.48;1762003;81;21466;-73
2021/07/12 08:37:33;;;;;;;9.43;7.53;;;;;;;28.07;55.51;100211.88;1762141;81;20999;-73
2021/07/12 08:39:59;;;;;;;7.97;6.75;;;;;;;28.26;55.48;100212.20;1761481;81;21107;-74
2021/07/12 08:42:26;;;;;;;10.05;7.12;;;;;;;28.33;54.62;100210.02;1761899;81;20992;-74
2021/07/12 08:44:53;;;;;;;7.40;6.53;;;;;;;28.44;55.00;100210.06;1761493;81;21466;-74
2021/07/12 08:47:19;;;;;;;10.60;7.28;;;;;;;28.47;55.02;100216.33;1761847;81;21011;-74
2021/07/12 08:49:45;;;;;;;11.15;8.13;;;;;;;28.44;53.97;100207.34;1761521;81;21038;-74
2021/07/12 08:52:15;;;;;;;12.75;7.45;;;;;;;28.63;54.12;100207.08;1761557;81;21447;-74
2021/07/12 08:54:44;;;;;;;10.10;7.70;;;;;;;28.86;54.39;100207.58;1761673;81;20975;-74
2021/07/12 08:57:10;;;;;;;8.90;7.72;;;;;;;29.08;54.15;100206.77;1759045;81;21672;-74
2021/07/12 08:59:41;;;;;;;11.93;6.47;;;;;;;29.27;54.19;100207.55;1740260;82;20964;-74
2021/07/12 09:02:17;;;;;;;8.73;6.97;;;;;;;29.45;53.67;100199.56;1740473;82;20941;-74
2021/07/12 09:04:48;;;;;;;7.50;6.70;;;;;;;29.64;53.35;100207.98;1740046;82;20983;-74
2021/07/12 09:07:28;;;;;;;12.47;6.25;;;;;;;29.78;52.10;100208.19;1740140;82;20984;-74
2021/07/12 09:10:13;;;;;;;18.52;6.33;;;;;;;29.81;50.83;100209.55;1739948;82;21024;-74
2021/07/12 09:12:47;;;;;;;9.48;6.78;;;;;;;29.79;49.81;100204.91;1739892;82;21540;-74
2021/07/12 09:15:18;;;;;;;15.18;7.28;;;;;;;29.85;51.24;100210.60;1739893;82;21020;-74
2021/07/12 09:17:53;;;;;;;9.33;7.00;;;;;;;29.95;50.41;100202.90;1739656;82;20972;-75
2021/07/12 09:20:29;;;;;;;14.53;7.33;;;;;;;30.12;50.36;100197.36;1739835;82;21023;-74
2021/07/12 09:22:57;;;;;;;8.33;6.70;;;;;;;30.24;51.21;100200.28;1739769;82;21030;-74
2021/07/12 09:25:25;;;;;;;10.28;7.30;;;;;;;30.39;51.02;100202.92;1719171;82;20964;-75
2021/07/12 09:27:55;;;;;;;9.75;6.87;;;;;;;30.48;49.99;100201.75;1719095;82;20997;-75
2021/07/12 09:30:21;;;;;;;8.98;6.72;;;;;;;30.42;50.49;100196.88;1740015;82;21467;-75
2021/07/12 09:32:50;;;;;;;13.00;7.22;;;;;;;30.56;50.72;100201.14;1739992;82;20996;-75
2021/07/12 09:35:19;;;;;;;18.27;7.03;;;;;;;30.56;50.16;100202.52;1740236;82;21013;-74
2021/07/12 09:37:50;;;;;;;8.28;7.12;;;;;;;30.74;50.31;100200.42;1740211;82;21023;-75
2021/07/12 09:40:18;;;;;;;7.47;6.70;;;;;;;30.92;49.19;100202.20;1738561;82;20956;-75
2021/07/12 09:42:47;;;;;;;15.35;6.90;;;;;;;30.94;48.35;100207.64;1739907;82;20990;-75
2021/07/12 09:45:23;;;;;;;12.45;6.72;;;;;;;30.87;48.50;100205.78;1740241;82;21025;-75
2021/07/12 09:47:51;;;;;;;8.98;5.80;;;;;;;30.76;48.48;100207.79;1739960;82;20988;-75
2021/07/12 09:50:24;;;;;;;10.48;6.58;;;;;;;30.85;48.62;100212.11;1740059;82;21582;-75
2021/07/12 09:53:00;;;;;;;11.57;6.50;;;;;;;30.97;48.00;100200.23;1739746;82;21039;-75
2021/07/12 09:55:34;;;;;;;9.43;6.42;;;;;;;31.09;48.12;100203.13;1740097;82;20984;-75
2021/07/12 09:58:16;;;;;;;13.72;6.37;;;;;;;31.11;47.80;100200.92;1747307;81;21019;-75
2021/07/12 10:00:55;;;;;;;11.03;7.22;;;;;;;31.15;46.84;100202.77;1761592;81;20968;-75
2021/07/12 10:03:21;;;;;;;10.45;5.92;;;;;;;31.27;47.35;100200.99;1760214;81;21007;-75
2021/07/12 10:05:50;;;;;;;10.05;6.62;;;;;;;31.44;47.28;100204.09;1761708;81;21043;-75
2021/07/12 10:08:16;;;;;;;6.62;5.75;;;;;;;31.61;45.92;100202.25;1762025;81;20979;-75
2021/07/12 10:10:43;;;;;;;8.25;5.78;;;;;;;31.68;44.68;100199.17;1762045;81;21015;-75
2021/07/12 10:13:09;;;;;;;6.47;5.78;;;;;;;31.55;44.36;100198.52;1762191;81;21007;-75
2021/07/12 10:15:36;;;;;;;14.18;6.40;;;;;;;31.61;44.90;100196.78;1762034;81;21016;-75
2021/07/12 10:18:04;;;;;;;13.90;5.83;;;;;;;31.55;45.00;100192.48;1761706;81;21811;-75
2021/07/12 10:20:33;;;;;;;7.62;5.87;;;;;;;31.65;44.89;100201.10;1761867;81;21038;-75
2021/07/12 10:23:02;;;;;;;9.28;6.42;;;;;;;31.70;44.32;100191.47;1761587;81;21589;-75
2021/07/12 10:25:31;;;;;;;18.57;5.80;;;;;;;31.81;43.80;100192.95;1761984;81;20979;-75
2021/07/12 10:28:05;;;;;;;11.15;5.83;;;;;;;31.55;42.62;100189.75;1762006;81;20967;-75
2021/07/12 10:30:48;;;;;;;6.40;5.62;;;;;;;31.56;43.23;100185.09;1762317;81;21003;-76
2021/07/12 10:33:18;;;;;;;9.43;5.55;;;;;;;31.76;44.28;100184.81;1761920;81;21011;-75
2021/07/12 10:35:52;;;;;;;;;;;;;;;31.96;45.06;100182.94;1764617;81;20980;-75
2021/07/12 10:38:25;;;;;;;18.48;5.90;;;;;;;32.10;43.67;100183.25;1761560;81;20086;-75
2021/07/12 10:40:58;;;;;;;7.12;5.42;;;;;;;32.24;44.50;100179.22;1761532;81;20994;-75
2021/07/12 10:43:49;;;;;;;10.00;5.20;;;;;;;32.47;43.25;100173.95;1762040;81;20979;-75
2021/07/12 10:46:34;;;;;;;8.83;4.87;;;;;;;32.59;43.09;100174.28;1762153;81;20952;-76
2021/07/12 10:49:04;;;;;;;11.12;4.90;;;;;;;32.77;41.81;100170.69;1761645;81;20988;-75
2021/07/12 10:51:40;;;;;;;13.78;4.55;;;;;;;32.88;40.78;100169.11;1761985;81;21046;-76
2021/07/12 10:54:11;;;;;;;12.78;4.83;;;;;;;32.97;39.67;100157.16;1734140;81;21613;-75
2021/07/12 10:57:01;;;;;;;9.98;4.90;;;;;;;32.99;39.05;100154.12;1761962;81;21042;-75
2021/07/12 10:59:33;;;;;;;8.23;4.67;;;;;;;33.13;39.24;100153.56;1760529;81;21055;-76
2021/07/12 11:02:16;;;;;;;7.53;4.65;;;;;;;33.26;38.78;100147.81;1761797;81;21011;-75
2021/07/12 11:04:51;;;;;;;7.17;4.30;;;;;;;33.34;38.38;100150.41;1760283;81;21015;-76
2021/07/12 11:07:19;;;;;;;5.03;4.47;;;;;;;33.36;38.04;100141.31;1761728;81;21031;-75
2021/07/12 11:09:56;;;;;;;8.20;4.40;;;;;;;33.43;36.45;100148.55;1761812;81;21015;-75
2021/07/12 11:12:36;;;;;;;15.43;4.53;;;;;;;33.36;34.82;100148.17;1762123;81;21419;-76
2021/07/12 11:15:26;;;;;;;5.40;3.90;;;;;;;33.41;34.74;100145.33;1762191;81;21510;-76
2021/07/12 11:18:08;;;;;;;11.75;4.35;;;;;;;33.39;34.64;100138.77;1761858;81;21526;-75
2021/07/12 11:21:06;;;;;;;8.58;3.98;;;;;;;33.37;32.40;100141.00;1761983;81;21534;-75
2021/07/12 11:23:55;;;;;;;18.48;4.65;;;;;;;33.37;33.82;100134.70;1762045;81;21043;-75
2021/07/12 11:26:27;;;;;;;7.90;4.67;;;;;;;33.29;34.41;100129.94;1762175;81;20984;-75
2021/07/12 11:28:59;;;;;;;10.58;4.97;;;;;;;33.36;35.34;100126.23;1761735;81;21050;-76
2021/07/12 11:31:54;;;;;;;9.30;3.92;;;;;;;33.37;34.91;100122.36;1761960;81;20988;-75
2021/07/12 11:34:36;;;;;;;8.28;5.12;;;;;;;33.40;34.05;100127.23;1762123;81;21074;-75
2021/07/12 11:37:03;;;;;;;11.70;4.55;;;;;;;33.46;34.47;100126.83;1759821;81;21542;-75